Little Clacton, United Kingdom
Current Conditions -  °F | °C
As of 2:50 AM on Friday 28 Nov 2014 (Local Time) from EGUW Reporting Station
Drizzle Drizzle  
Wind Chill: 50°   Ceiling: 700
Heat Index: 50°   Visibility: 4mi
Dew Point: 50°   Wind: 6mph
Humidity: 100%   Direction: 100°E
Pressure: 29.62"   Gusts: NA
Location:  51.83°N, 1.14°E
Report Text: EGUW 280250Z 10005KT 7000 -DZ BKN007 BKN012 10/10 Q1003 GRN
Loading
Personal Weather Stations






























Interactive Weather Map New forecast layout! Learn more

10-Day Weather Forecast

Advertisements
Track Severe Weather on mobile